EST,Max TemperatureF,Mean TemperatureF,Min TemperatureF,Max Dew PointF,MeanDew PointF,Min DewpointF,Max Humidity, Mean Humidity, Min Humidity, Max Sea Level PressureIn, Mean Sea Level PressureIn, Min Sea Level PressureIn, Max VisibilityMiles, Mean VisibilityMiles, Min VisibilityMiles, Max Wind SpeedMPH, Mean Wind SpeedMPH, Max Gust SpeedMPH,PrecipitationIn, CloudCover, Events, WindDirDegrees
2013-1-1,57,52,48,52,47,42,90,80,59,30.15,30.06,29.98,10,10,8,10,5,,0.00,7,Rain,251
2013-1-2,54,46,39,52,46,35,100,90,81,30.22,30.03,29.93,10,7,2,13,4,18,0.27,7,Rain,22
2013-1-3,42,38,34,37,34,31,92,81,76,30.28,30.21,30.16,10,10,6,10,5,,0.03,5,Rain,11
2013-1-4,51,40,28,32,28,25,96,66,38,30.34,30.28,30.23,10,9,6,12,3,,0.00,1,,300
2013-1-5,50,38,27,34,28,21,93,69,33,30.41,30.35,30.29,10,10,10,8,3,,0.00,0,,358
2013-1-6,48,44,39,45,40,35,93,83,66,30.31,30.19,30.11,10,10,10,8,2,,0.01,7,Rain,311
2013-1-7,54,46,37,43,34,30,90,70,41,30.47,30.35,30.15,10,10,10,15,7,23,0.00,2,,20
2013-1-8,61,51,41,48,42,30,96,75,62,30.47,30.41,30.38,10,10,9,13,7,,0.00,2,,58
2013-1-9,66,55,44,56,51,42,93,83,61,30.45,30.40,30.38,10,10,8,6,2,,0.00,4,,41
2013-1-10,64,55,46,53,44,32,100,74,35,30.53,30.46,30.41,10,7,1,14,4,17,0.00,1,,27
2013-1-11,66,57,48,63,56,39,100,91,71,30.44,30.25,30.18,10,4,0,12,6,20,0.28,6,Fog-Rain,201
2013-1-12,66,58,51,60,56,52,100,96,76,30.20,30.16,30.13,10,4,0,6,2,,0.01,3,Fog,217
2013-1-13,66,60,53,60,57,53,100,92,75,30.20,30.16,30.13,10,6,0,7,2,,0.01,2,Fog,191
2013-1-14,69,63,57,63,59,56,97,91,75,30.22,30.18,30.14,10,9,3,10,5,,0.01,2,,229
2013-1-15,62,58,53,60,56,52,100,95,82,30.22,30.16,30.10,10,4,0,10,3,,0.03,7,Fog-Rain,50
2013-1-16,68,62,55,60,57,54,100,93,75,30.09,30.05,30.01,10,5,0,7,2,,0.00,4,Fog,206
2013-1-17,73,65,54,63,58,51,94,82,67,30.04,29.97,29.93,10,7,7,10,4,16,0.00,5,,66
2013-1-18,48,42,35,34,28,24,81,58,39,30.57,30.50,30.43,10,9,7,14,7,17,0.00,1,,25
2013-1-19,59,44,30,43,34,25,93,74,44,30.52,30.39,30.22,10,10,5,7,4,,0.19,0,,356
2013-1-20,62,50,39,47,42,37,96,80,39,30.19,30.11,30.02,10,10,7,10,4,21,0.00,0,,255
2013-1-21,61,49,37,46,39,32,79,65,53,30.09,30.02,29.91,10,10,10,10,6,16,0.00,0,,266
2013-1-22,50,39,27,31,13,2,53,35,18,30.30,30.16,29.97,10,10,10,16,8,22,0.00,1,,341
2013-1-23,44,34,25,28,10,-1,59,40,20,30.41,30.31,30.15,10,10,6,14,5,20,0.00,0,,333
2013-1-24,48,37,26,36,18,3,65,46,29,30.54,30.27,30.01,10,10,9,20,11,31,0.00,3,,340
2013-1-25,37,29,21,31,21,6,96,69,45,30.53,30.31,30.13,10,8,3,8,5,17,0.08,6,Rain,2
2013-1-26,42,35,28,32,28,25,89,81,67,30.41,30.26,30.15,10,7,3,9,6,,0.00,4,,355
2013-1-27,44,36,28,28,25,20,93,71,40,30.60,30.53,30.42,10,7,2,14,7,20,0.00,1,,27
2013-1-28,54,42,30,53,41,25,97,84,75,30.53,30.39,30.28,10,8,0,8,5,,0.00,6,Fog-Rain,310
2013-1-29,66,57,48,57,53,46,100,93,68,30.27,30.21,30.16,10,4,0,10,4,16,0.00,3,Fog,241
2013-1-30,69,62,55,60,57,55,100,91,73,30.17,30.05,29.67,10,5,0,24,7,31,0.00,5,Fog,211
2013-1-31,66,55,44,63,41,22,94,61,29,30.09,29.79,29.55,10,8,2,26,17,47,0.15,4,Rain,257